.
WxDataArchive / Data Records for 2006-06-06
2006-06-05 June 2006 2006-06-07

Data Records for Tuesday, 06 June 2006

Time	Temp	Chill	HIndex	Humid	Dewpt	 Wind 	HiWind	WindDir	Rain 	Barom 
-----	----	-----	------	-----	-----	------	------	-------	-----	----- 
00:00	59.2	59.2	59.2	69	49.0	0	0	---	0.00	29.937 
00:05	59.0	59.0	59.0	70	49.2	0	0	---	0.00	29.937 
00:10	58.9	58.9	58.9	69	48.7	0	0	---	0.00	29.937 
00:15	58.6	58.6	58.6	70	48.8	0	0	---	0.00	29.936 
00:20	58.4	58.4	58.4	70	48.7	0	0	---	0.00	29.936 
00:25	58.3	58.3	58.3	71	48.9	0	0	---	0.00	29.936 
00:30	58.1	58.1	58.1	72	49.1	0	0	---	0.00	29.934 
00:35	58.0	58.0	58.0	73	49.4	0	0	---	0.00	29.934 
00:40	57.8	57.8	57.8	73	49.2	0	0	---	0.00	29.934 
00:45	57.6	57.6	57.6	74	49.4	0	0	---	0.00	29.934 
00:50	57.5	57.5	57.5	74	49.3	0	0	---	0.00	29.934 
00:55	57.5	57.5	57.5	75	49.6	0	0	---	0.00	29.934 
01:00	57.3	57.3	57.3	76	49.8	0	0	---	0.00	29.936 
01:05	57.2	57.2	57.2	76	49.7	0	0	---	0.00	29.936 
01:10	57.2	57.2	57.2	76	49.7	0	0	---	0.00	29.936 
01:15	57.0	57.0	57.0	75	49.2	0	0	---	0.00	29.936 
01:20	57.0	57.0	57.0	77	49.9	0	0	---	0.00	29.936 
01:25	56.9	56.9	56.9	77	49.8	0	0	---	0.00	29.936 
01:30	56.7	56.7	56.7	76	49.2	0	0	---	0.00	29.936 
01:35	56.6	56.6	56.6	76	49.1	0	0	---	0.00	29.936 
01:40	56.6	56.6	56.6	75	48.8	0	0	---	0.00	29.936 
01:45	56.5	56.5	56.5	75	48.7	0	0	---	0.00	29.934 
01:50	56.3	56.3	56.3	75	48.5	0	0	---	0.00	29.934 
01:55	56.0	56.0	56.0	74	47.8	0	0	---	0.00	29.934 
02:00	56.0	56.0	56.0	75	48.2	0	0	---	0.00	29.936 
02:05	55.9	55.9	55.9	76	48.4	0	0	---	0.00	29.936 
02:10	56.0	56.0	56.0	77	48.9	0	0	---	0.00	29.936 
02:15	56.0	56.0	56.0	77	48.9	0	0	---	0.00	29.934 
02:20	55.9	55.9	55.9	77	48.8	0	0	---	0.00	29.934 
02:25	55.7	55.7	55.7	77	48.6	0	0	---	0.00	29.934 
02:30	55.7	55.7	55.7	78	48.9	0	0	---	0.00	29.931 
02:35	55.6	55.6	55.6	78	48.8	0	0	---	0.00	29.931 
02:40	55.4	55.4	55.4	77	48.3	0	0	---	0.00	29.931 
02:45	55.3	55.3	55.3	76	47.9	0	0	---	0.00	29.926 
02:50	55.1	55.1	55.1	76	47.7	0	0	---	0.00	29.926 
02:55	55.1	55.1	55.1	77	48.0	0	0	---	0.00	29.926 
03:00	55.1	55.1	55.1	77	48.0	0	0	---	0.00	29.927 
03:05	55.0	55.0	55.0	77	47.9	0	0	---	0.00	29.927 
03:10	54.8	54.8	54.8	77	47.7	0	0	---	0.00	29.927 
03:15	54.7	54.7	54.7	77	47.6	0	0	---	0.00	29.923 
03:20	54.5	54.5	54.5	78	47.8	0	0	---	0.00	29.923 
03:25	54.5	54.5	54.5	77	47.4	0	0	---	0.00	29.923 
03:30	54.4	54.4	54.4	79	48.0	0	0	---	0.00	29.925 
03:35	54.2	54.2	54.2	79	47.8	0	0	---	0.00	29.925 
03:40	54.2	54.2	54.2	79	47.8	0	0	---	0.00	29.925 
03:45	54.1	54.1	54.1	80	48.1	0	0	---	0.00	29.928 
03:50	54.1	54.1	54.1	80	48.1	0	0	---	0.00	29.928 
03:55	54.1	54.1	54.1	81	48.4	0	0	---	0.00	29.928 
04:00	53.9	53.9	53.9	81	48.2	0	0	---	0.00	29.929 
04:05	53.8	53.8	53.8	81	48.1	0	0	---	0.00	29.929 
04:10	53.6	53.6	53.6	81	47.9	0	0	---	0.00	29.929 
04:15	53.6	53.6	53.6	81	47.9	0	0	---	0.00	29.929 
04:20	53.5	53.5	53.5	81	47.8	0	0	---	0.00	29.929 
04:25	53.3	53.3	53.3	80	47.3	0	0	---	0.00	29.929 
04:30	53.3	53.3	53.3	80	47.3	0	0	---	0.00	29.936 
04:35	53.3	53.3	53.3	80	47.3	0	0	---	0.00	29.936 
04:40	53.3	53.3	53.3	80	47.3	0	0	---	0.00	29.936 
04:45	53.5	53.5	53.5	80	47.5	0	0	---	0.00	29.939 
04:50	53.5	53.5	53.5	79	47.1	0	0	---	0.00	29.939 
04:55	53.5	53.5	53.5	79	47.1	0	0	---	0.00	29.939 
05:00	53.3	53.3	53.3	79	47.0	0	0	---	0.00	29.940 
05:05	53.3	53.3	53.3	78	46.6	0	0	---	0.00	29.940 
05:10	53.3	53.3	53.3	79	47.0	0	0	---	0.00	29.940 
05:15	53.2	53.2	53.2	79	46.9	0	0	---	0.00	29.944 
05:20	53.1	53.1	53.1	79	46.8	0	0	---	0.00	29.944 
05:25	53.1	53.1	53.1	81	47.4	0	0	---	0.00	29.944 
05:30	52.9	52.9	52.9	81	47.2	0	0	---	0.00	29.945 
05:35	52.8	52.8	52.8	81	47.1	0	0	---	0.00	29.945 
05:40	52.6	52.6	52.6	81	46.9	0	0	---	0.00	29.945 
05:45	52.5	52.5	52.5	82	47.2	0	0	---	0.00	29.941 
05:50	52.5	52.5	52.5	82	47.2	0	0	---	0.00	29.941 
05:55	52.5	52.5	52.5	81	46.8	0	0	---	0.00	29.941 
06:00	52.5	52.5	52.5	82	47.2	0	0	---	0.00	29.949 
06:05	52.5	52.5	52.5	82	47.2	0	0	---	0.00	29.949 
06:10	52.3	52.3	52.3	82	47.0	0	0	---	0.00	29.949 
06:15	52.3	52.3	52.3	82	47.0	0	0	---	0.00	29.955 
06:20	52.3	52.3	52.3	82	47.0	0	0	---	0.00	29.955 
06:25	52.2	52.2	52.2	82	46.9	0	0	---	0.00	29.955 
06:30	52.2	52.2	52.2	82	46.9	0	0	---	0.00	29.957 
06:35	52.2	52.2	52.2	82	46.9	0	0	---	0.00	29.957 
06:40	52.2	52.2	52.2	83	47.2	0	0	---	0.00	29.957 
06:45	52.2	52.2	52.2	83	47.2	0	0	---	0.00	29.956 
06:50	52.2	52.2	52.2	83	47.2	0	0	---	0.00	29.956 
06:55	52.3	52.3	52.3	83	47.3	0	0	---	0.00	29.956 
07:00	52.5	52.5	52.5	84	47.8	0	0	---	0.00	29.955 
07:05	52.6	52.6	52.6	84	47.9	0	0	---	0.00	29.955 
07:10	53.1	53.1	53.1	84	48.4	0	0	---	0.00	29.955 
07:15	53.3	53.3	53.3	85	48.9	0	0	---	0.00	29.953 
07:20	54.1	54.1	54.1	84	49.4	0	0	---	0.00	29.953 
07:25	54.8	54.8	54.8	82	49.4	0	0	---	0.00	29.953 
07:30	55.9	55.9	55.9	78	49.1	0	0	---	0.00	29.954 
07:35	56.9	56.9	56.9	76	49.4	0	0	---	0.00	29.954 
07:40	58.1	58.1	58.1	75	50.2	0	0	---	0.00	29.954 
07:45	59.5	59.5	59.5	73	50.8	0	0	---	0.00	29.951 
07:50	61.2	61.2	61.2	68	50.5	0	1	112	0.00	29.951 
07:55	63.2	63.2	63.2	64	50.8	0	0	---	0.00	29.951 
08:00	64.2	64.2	64.2	63	51.3	0	0	---	0.00	29.947 
08:05	65.0	65.0	65.0	61	51.2	0	1	112	0.00	29.947 
08:10	65.5	65.5	65.5	61	51.7	0	1	112	0.00	29.947 
08:15	66.0	66.0	66.0	59	51.3	0	1	112	0.00	29.948 
08:20	66.6	66.6	66.6	60	52.3	0	1	112	0.00	29.948 
08:25	67.3	67.3	67.3	58	52.0	0	1	112	0.00	29.948 
08:30	67.8	67.8	67.8	56	51.5	0	2	112	0.00	29.948 
08:35	68.3	68.3	68.3	54	51.0	0	1	112	0.00	29.948 
08:40	68.8	68.8	68.8	55	52.0	0	1	112	0.00	29.948 
08:45	69.3	69.3	69.3	53	51.4	0	1	112	0.00	29.948 
08:50	69.9	69.9	69.9	54	52.5	0	1	112	0.00	29.948 
08:55	70.3	70.3	70.3	51	51.3	0	1	112	0.00	29.948 
09:00	70.8	70.8	70.8	51	51.8	0	1	112	0.00	29.946 
09:05	71.5	71.5	71.5	54	54.0	0	1	112	0.00	29.946 
09:10	71.8	71.8	71.8	52	53.2	0	1	112	0.00	29.946 
09:15	72.3	72.3	72.3	46	50.3	0	1	112	0.00	29.949 
09:20	72.7	72.7	72.7	51	53.5	0	2	112	0.00	29.949 
09:25	73.2	73.2	73.2	48	52.3	0	1	112	0.00	29.949 
09:30	73.7	73.7	73.7	50	53.9	0	2	112	0.00	29.950 
09:35	74.0	74.0	74.0	45	51.3	1	2	248	0.00	29.950 
09:40	74.4	74.4	74.4	45	51.7	1	2	248	0.00	29.950 
09:45	74.6	74.6	74.6	44	51.2	1	3	248	0.00	29.949 
09:50	74.9	74.9	74.9	45	52.1	0	2	270	0.00	29.949 
09:55	75.3	75.3	77.7	46	53.1	1	3	270	0.00	29.949 
10:00	75.8	75.8	77.9	46	53.5	1	3	270	0.00	29.952 
10:05	76.0	76.0	78.0	44	52.5	1	3	270	0.00	29.952 
10:10	76.3	76.3	78.1	45	53.4	1	2	248	0.00	29.952 
10:15	76.5	76.5	78.1	43	52.3	1	3	248	0.00	29.957 
10:20	76.7	76.7	78.2	43	52.5	1	3	248	0.00	29.957 
10:25	76.8	76.8	78.2	42	51.9	1	4	270	0.00	29.957 
10:30	77.0	77.0	78.4	44	53.4	1	2	270	0.00	29.951 
10:35	77.0	77.0	78.3	42	52.1	1	3	292	0.00	29.951 
10:40	77.6	77.6	78.6	42	52.7	1	3	248	0.00	29.951 
10:45	77.9	77.9	78.7	41	52.3	1	2	248	0.00	29.949 
10:50	78.1	78.1	78.8	40	51.8	1	3	248	0.00	29.949 
10:55	78.3	78.3	78.8	39	51.3	1	4	248	0.00	29.949 
11:00	78.8	78.8	79.5	45	55.6	0	2	315	0.00	29.946 
11:05	79.0	79.0	79.2	38	51.2	1	2	315	0.00	29.946 
11:10	79.2	79.2	79.5	41	53.4	1	3	315	0.00	29.946 
11:15	79.4	79.4	79.2	36	50.1	1	3	292	0.00	29.946 
11:20	79.6	79.6	79.4	36	50.3	1	2	292	0.00	29.946 
11:25	79.9	79.9	79.5	35	49.8	1	3	270	0.00	29.946 
11:30	79.9	79.9	79.4	34	49.0	1	4	270	0.00	29.943 
11:35	79.9	79.9	79.6	36	50.5	2	4	270	0.00	29.943 
11:40	80.1	80.1	79.6	35	50.0	1	3	22	0.00	29.943 
11:45	80.3	80.3	79.4	31	46.9	2	6	270	0.00	29.943 
11:50	80.7	80.7	79.5	29	45.5	2	4	270	0.00	29.943 
11:55	80.9	80.9	79.8	31	47.4	1	3	248	0.00	29.943 
12:00	80.9	80.9	80.1	34	49.9	2	4	248	0.00	29.942 
12:05	81.2	81.2	79.9	30	46.8	0	2	248	0.00	29.942 
12:10	81.6	81.6	80.1	29	46.2	1	4	270	0.00	29.942 
12:15	81.8	81.8	80.1	27	44.5	1	3	248	0.00	29.941 
12:20	81.6	81.6	80.1	29	46.2	1	4	315	0.00	29.941 
12:25	81.4	81.4	79.9	28	45.1	2	6	270	0.00	29.941 
12:30	81.4	81.4	79.9	27	44.2	1	3	248	0.00	29.938 
12:35	81.8	81.8	80.3	29	46.4	1	5	248	0.00	29.938 
12:40	81.8	81.8	80.1	27	44.5	2	6	248	0.00	29.938 
12:45	82.0	82.0	80.6	31	48.4	1	4	270	0.00	29.934 
12:50	82.0	82.0	80.6	31	48.4	2	6	90	0.00	29.934 
12:55	81.6	81.6	80.4	32	48.9	1	3	270	0.00	29.934 
13:00	81.2	81.2	79.9	30	46.8	2	3	248	0.00	29.934 
13:05	80.9	80.9	79.9	32	48.2	2	5	248	0.00	29.934 
13:10	80.5	80.5	79.6	31	47.1	1	2	270	0.00	29.934 
13:15	80.9	80.9	80.1	34	49.9	1	2	270	0.00	29.936 
13:20	81.4	81.4	80.4	34	50.3	1	4	270	0.00	29.936 
13:25	82.2	82.2	80.5	29	46.8	2	4	248	0.00	29.936 
13:30	82.6	82.6	81.1	32	49.7	1	5	90	0.00	29.932 
13:35	82.6	82.6	80.8	28	46.2	2	4	248	0.00	29.932 
13:40	82.8	82.8	81.9	38	54.6	1	3	248	0.00	29.932 
13:45	83.0	83.0	81.2	30	48.3	2	7	270	0.00	29.930 
13:50	83.2	83.2	81.3	29	47.6	2	6	270	0.00	29.930 
13:55	83.0	83.0	81.1	29	47.4	2	4	248	0.00	29.930 
14:00	82.4	82.4	80.6	28	46.0	2	5	248	0.00	29.929 
14:05	82.0	82.0	80.3	28	45.7	3	5	270	0.00	29.929 
14:10	82.2	82.2	80.7	31	48.5	2	4	248	0.00	29.929 
14:15	82.4	82.4	80.8	30	47.8	2	5	112	0.00	29.921 
14:20	82.4	82.4	80.9	31	48.7	2	5	248	0.00	29.921 
14:25	82.8	82.8	80.9	28	46.3	2	5	248	0.00	29.921 
14:30	83.2	83.2	81.2	28	46.7	2	4	248	0.00	29.917 
14:35	83.2	83.2	81.3	29	47.6	2	4	248	0.00	29.917 
14:40	83.0	83.0	81.0	28	46.5	2	7	248	0.00	29.917 
14:45	83.0	83.0	81.2	30	48.3	1	3	270	0.00	29.914 
14:50	83.0	83.0	81.0	27	45.5	2	5	270	0.00	29.914 
14:55	82.8	82.8	80.9	28	46.3	1	5	270	0.00	29.914 
15:00	82.4	82.4	80.8	30	47.8	2	4	270	0.00	29.905 
15:05	81.8	81.8	80.3	30	47.3	2	6	270	0.00	29.905 
15:10	81.4	81.4	80.1	31	47.8	1	4	248	0.00	29.905 
15:15	81.8	81.8	80.4	31	48.2	2	5	270	0.00	29.903 
15:20	82.0	82.0	80.7	32	49.2	2	7	248	0.00	29.903 
15:25	81.8	81.8	80.3	29	46.4	1	4	248	0.00	29.903 
15:30	81.6	81.6	80.3	31	48.0	1	2	248	0.00	29.902 
15:35	81.4	81.4	80.2	32	48.7	1	3	248	0.00	29.902 
15:40	81.6	81.6	80.4	32	48.9	2	5	248	0.00	29.902 
15:45	82.2	82.2	80.7	31	48.5	2	4	248	0.00	29.898 
15:50	82.2	82.2	80.7	31	48.5	2	5	292	0.00	29.898 
15:55	82.8	82.8	81.2	31	49.0	1	3	270	0.00	29.898 
16:00	83.0	83.0	81.2	30	48.3	2	6	248	0.00	29.889 
16:05	82.4	82.4	80.7	29	46.9	2	5	248	0.00	29.889 
16:10	81.8	81.8	80.3	30	47.3	2	5	248	0.00	29.889 
16:15	81.8	81.8	80.6	33	49.9	1	3	270	0.00	29.886 
16:20	82.2	82.2	80.9	33	50.2	1	3	270	0.00	29.886 
16:25	81.8	81.8	80.3	29	46.4	2	5	292	0.00	29.886 
16:30	81.4	81.4	80.1	30	47.0	2	5	292	0.00	29.882 
16:35	81.2	81.2	80.1	32	48.5	1	4	270	0.00	29.882 
16:40	81.4	81.4	80.2	32	48.7	2	5	248	0.00	29.882 
16:45	81.1	81.1	79.9	30	46.7	2	5	248	0.00	29.880 
16:50	80.7	80.7	79.8	32	48.1	1	2	248	0.00	29.880 
16:55	80.7	80.7	79.9	34	49.7	1	3	248	0.00	29.880 
17:00	80.7	80.7	79.9	34	49.7	1	5	270	0.00	29.874 
17:05	80.5	80.5	79.9	36	51.1	1	2	270	0.00	29.874 
17:10	80.1	80.1	79.5	33	48.4	2	4	248	0.00	29.874 
17:15	79.8	79.8	79.3	34	48.9	1	4	248	0.00	29.873 
17:20	79.4	79.4	79.2	35	49.3	1	4	270	0.00	29.873 
17:25	79.4	79.4	79.1	34	48.6	1	3	248	0.00	29.873 
17:30	79.4	79.4	79.1	34	48.6	1	4	248	0.00	29.867 
17:35	79.4	79.4	79.2	35	49.3	0	2	248	0.00	29.867 
17:40	79.4	79.4	79.0	33	47.8	1	5	248	0.00	29.867 
17:45	79.4	79.4	79.1	34	48.6	2	7	248	0.00	29.862 
17:50	79.4	79.4	79.0	32	46.9	2	4	248	0.00	29.862 
17:55	79.8	79.8	79.4	35	49.7	1	3	248	0.00	29.862 
18:00	80.3	80.3	79.5	32	47.7	2	3	248	0.00	29.860 
18:05	80.5	80.5	79.7	33	48.7	1	4	248	0.00	29.860 
18:10	80.5	80.5	79.7	33	48.7	1	3	248	0.00	29.860 
18:15	80.7	80.7	79.8	32	48.1	0	2	292	0.00	29.858 
18:20	80.7	80.7	79.9	34	49.7	1	3	292	0.00	29.858 
18:25	80.9	80.9	80.0	33	49.1	0	2	248	0.00	29.858 
18:30	81.1	81.1	80.3	35	50.8	1	3	248	0.00	29.858 
18:35	81.1	81.1	79.9	31	47.6	1	3	248	0.00	29.858 
18:40	80.9	80.9	79.7	30	46.5	2	4	248	0.00	29.858 
18:45	80.7	80.7	79.6	30	46.4	2	4	248	0.00	29.858 
18:50	80.5	80.5	79.7	33	48.7	1	3	248	0.00	29.858 
18:55	80.3	80.3	79.4	30	46.0	1	4	292	0.00	29.858 
19:00	80.1	80.1	79.4	32	47.6	1	2	248	0.00	29.860 
19:05	80.3	80.3	79.6	33	48.5	1	3	225	0.00	29.860 
19:10	80.3	80.3	79.5	32	47.7	1	4	248	0.00	29.860 
19:15	80.1	80.1	79.3	31	46.7	1	3	248	0.00	29.850 
19:20	79.9	79.9	79.2	31	46.5	1	6	248	0.00	29.850 
19:25	79.8	79.8	79.1	30	45.6	1	3	248	0.00	29.850 
19:30	79.6	79.6	79.0	31	46.3	1	3	248	0.00	29.851 
19:35	79.4	79.4	79.0	33	47.8	1	3	248	0.00	29.851 
19:40	79.2	79.2	78.9	32	46.8	1	3	248	0.00	29.851 
19:45	78.8	78.8	78.6	32	46.4	2	5	248	0.00	29.852 
19:50	78.6	78.6	78.7	35	48.6	1	5	270	0.00	29.852 
19:55	78.6	78.6	78.5	32	46.3	1	3	248	0.00	29.852 
20:00	78.5	78.5	78.5	32	46.2	1	3	292	0.00	29.852 
20:05	78.3	78.3	78.4	32	46.0	1	2	270	0.00	29.852 
20:10	78.1	78.1	78.2	31	45.0	1	4	248	0.00	29.852 
20:15	78.1	78.1	78.2	31	45.0	1	3	248	0.00	29.847 
20:20	77.9	77.9	78.2	32	45.6	1	3	248	0.00	29.847 
20:25	77.6	77.6	78.1	33	46.2	0	2	248	0.00	29.847 
20:30	77.2	77.2	78.1	35	47.4	0	2	248	0.00	29.845 
20:35	76.8	76.8	77.9	35	47.1	0	1	248	0.00	29.845 
20:40	76.3	76.3	77.8	37	48.1	0	1	248	0.00	29.845 
20:45	75.8	75.8	77.6	36	46.9	0	1	248	0.00	29.848 
20:50	75.4	75.4	77.5	37	47.3	0	1	248	0.00	29.848 
20:55	75.1	75.1	77.4	38	47.7	0	2	248	0.00	29.848 
21:00	74.7	74.7	74.7	38	47.4	0	1	248	0.00	29.848 
21:05	74.4	74.4	74.4	39	47.8	0	1	248	0.00	29.848 
21:10	74.0	74.0	74.0	39	47.5	0	0	---	0.00	29.848 
21:15	73.5	73.5	73.5	40	47.7	0	0	---	0.00	29.844 
21:20	73.2	73.2	73.2	42	48.7	0	0	---	0.00	29.844 
21:25	72.7	72.7	72.7	43	48.9	0	0	---	0.00	29.844 
21:30	72.1	72.1	72.1	43	48.4	0	0	---	0.00	29.845 
21:35	71.6	71.6	71.6	44	48.5	0	1	248	0.00	29.845 
21:40	71.1	71.1	71.1	45	48.7	0	0	---	0.00	29.845 
21:45	70.8	70.8	70.8	46	49.0	0	0	---	0.00	29.847 
21:50	70.4	70.4	70.4	48	49.8	0	0	---	0.00	29.847 
21:55	70.1	70.1	70.1	47	48.9	0	0	---	0.00	29.847 
22:00	69.8	69.8	69.8	48	49.2	0	0	---	0.00	29.849 
22:05	69.6	69.6	69.6	48	49.0	0	0	---	0.00	29.849 
22:10	69.3	69.3	69.3	48	48.8	0	0	---	0.00	29.849 
22:15	69.1	69.1	69.1	48	48.6	0	1	248	0.00	29.853 
22:20	68.9	68.9	68.9	49	48.9	0	0	---	0.00	29.853 
22:25	68.8	68.8	68.8	49	48.8	0	0	---	0.00	29.853 
22:30	68.6	68.6	68.6	51	49.7	0	0	---	0.00	29.856 
22:35	68.4	68.4	68.4	51	49.6	0	1	248	0.00	29.856 
22:40	68.4	68.4	68.4	51	49.6	0	0	---	0.00	29.856 
22:45	68.1	68.1	68.1	51	49.3	0	0	---	0.00	29.855 
22:50	67.9	67.9	67.9	52	49.6	0	0	---	0.00	29.855 
22:55	67.6	67.6	67.6	52	49.3	0	0	---	0.00	29.855 
23:00	67.3	67.3	67.3	53	49.6	0	0	---	0.00	29.849 
23:05	66.9	66.9	66.9	54	49.7	0	0	---	0.00	29.849 
23:10	66.6	66.6	66.6	54	49.4	0	0	---	0.00	29.849 
23:15	66.6	66.6	66.6	54	49.4	0	0	---	0.00	29.847 
23:20	66.4	66.4	66.4	55	49.7	0	0	---	0.00	29.847 
23:25	66.6	66.6	66.6	55	49.9	0	0	---	0.00	29.847 
23:30	66.6	66.6	66.6	55	49.9	0	0	---	0.00	29.845 
23:35	66.4	66.4	66.4	55	49.7	0	0	---	0.00	29.845 
23:40	66.4	66.4	66.4	56	50.2	0	0	---	0.00	29.845 
23:45	66.3	66.3	66.3	57	50.6	0	0	---	0.00	29.847 
23:50	66.1	66.1	66.1	57	50.4	0	0	---	0.00	29.847 
23:55	66.1	66.1	66.1	58	50.9	0	0	---	0.00	29.847 

CoCoRaHS
IN-AL-39
A2 Web Hosting
Creative Commons License
GoDaddy
Look for:

loaded 2017-10-20 19:32:30 • last modified 2010-11-18 10:43:29
Privacy PolicyDisclaimer
• wx.awcolley.com is powered by PmWiki v.2002016 •
• all content (unless otherwise noted) © 2017 A W Colley